Terminal Aerodrome Forecast
Issued by NWS

Current Version | Previous Version | Graphics & Text | Print | Product List | Glossary On
Versions: 1 2 3 4 5 6 7 8 9 10 11 12 13 14 15 16
344
FTUS41 KPBZ 210520
TAFMGW
TAF
KMGW 210520Z 2106/2206 11008KT P6SM BKN200 WS015/17033KT
     FM211500 16008G16KT P6SM VCSH BKN050
     FM211800 18008G16KT P6SM -SHRA VCTS OVC035CB
     FM220100 19008KT P6SM VCSH OVC025
     FM220400 20007KT P6SM OVC015=

USA.gov is the U.S. government's official web portal to all federal, state and local government web resources and services.